createdAt,value
2022-08-26T01:01:32.218Z,6.38
2022-08-26T01:04:01.915Z,6.35
2022-08-26T01:06:29.807Z,6.03
2022-08-26T01:09:00.030Z,6.65
2022-08-26T01:11:28.080Z,6.70
2022-08-26T01:13:58.298Z,6.20
2022-08-26T01:16:26.424Z,6.38
2022-08-26T01:18:59.608Z,6.78
2022-08-26T01:21:30.410Z,6.30
2022-08-26T01:24:00.543Z,6.43
2022-08-26T01:26:32.242Z,6.60
2022-08-26T01:29:03.833Z,6.80
2022-08-26T01:31:39.349Z,6.32
2022-08-26T01:34:11.999Z,6.78
2022-08-26T01:36:40.388Z,5.70
2022-08-26T01:39:11.543Z,6.88
2022-08-26T01:41:41.018Z,6.70
2022-08-26T01:44:16.925Z,6.25
2022-08-26T01:46:46.143Z,6.72
2022-08-26T01:49:16.145Z,6.47
2022-08-26T01:51:44.473Z,7.05
2022-08-26T01:54:14.012Z,7.18
2022-08-26T01:56:42.168Z,6.80
2022-08-26T01:59:12.931Z,7.07
2022-08-26T02:01:41.633Z,6.83
2022-08-26T02:04:18.849Z,6.97
2022-08-26T02:06:48.175Z,6.90
2022-08-26T02:09:20.049Z,7.00
2022-08-26T02:11:48.919Z,6.90
2022-08-26T02:14:22.530Z,6.95
2022-08-26T02:16:53.393Z,7.20
2022-08-26T02:19:24.126Z,6.95
2022-08-26T02:21:53.854Z,6.70
2022-08-26T02:24:27.538Z,7.00
2022-08-26T02:26:57.522Z,6.88
2022-08-26T02:29:30.034Z,7.10
2022-08-26T02:31:59.482Z,7.13
2022-08-26T02:34:31.087Z,7.20
2022-08-26T02:37:00.801Z,7.13
2022-08-26T02:39:30.535Z,7.32
2022-08-26T02:41:59.834Z,7.25
2022-08-26T02:44:28.429Z,7.20
2022-08-26T02:46:56.711Z,7.10
2022-08-26T02:49:25.449Z,6.40
2022-08-26T02:51:53.955Z,5.95
2022-08-26T02:54:22.839Z,6.60
2022-08-26T02:56:52.566Z,6.00
2022-08-26T02:59:20.306Z,6.25
2022-08-26T03:01:52.671Z,6.55
2022-08-26T03:04:23.886Z,6.55
2022-08-26T03:06:53.869Z,6.75
2022-08-26T03:11:52.467Z,6.25
2022-08-26T03:14:20.854Z,6.95
2022-08-26T03:16:50.816Z,7.60
2022-08-26T03:19:19.239Z,7.70
2022-08-26T03:21:47.604Z,7.35
2022-08-26T03:24:15.846Z,7.07
2022-08-26T03:26:52.386Z,7.20
2022-08-26T03:29:40.441Z,7.50
2022-08-26T03:32:08.238Z,8.00
2022-08-26T03:34:36.897Z,7.68
2022-08-26T03:37:06.531Z,7.57
2022-08-26T03:39:34.240Z,7.93
2022-08-26T03:42:01.973Z,7.93
2022-08-26T03:44:31.460Z,7.80
2022-08-26T03:47:00.319Z,7.60
2022-08-26T03:49:28.991Z,7.90
2022-08-26T03:51:56.758Z,7.63
2022-08-26T03:54:24.883Z,7.60
2022-08-26T03:56:52.484Z,7.72
2022-08-26T03:59:21.024Z,7.63
2022-08-26T04:01:50.125Z,7.47
2022-08-26T04:04:18.188Z,7.70
2022-08-26T04:06:51.037Z,7.88
2022-08-26T04:09:21.331Z,7.60
2022-08-26T04:11:50.628Z,7.50
2022-08-26T04:14:21.066Z,7.70
2022-08-26T04:16:51.147Z,7.40
2022-08-26T04:19:20.403Z,7.50
2022-08-26T04:21:51.151Z,7.95
2022-08-26T04:24:19.249Z,7.53
2022-08-26T04:26:47.241Z,7.78
2022-08-26T04:29:17.589Z,7.88
2022-08-26T04:31:46.833Z,7.83
2022-08-26T04:34:17.629Z,7.93
2022-08-26T04:36:45.527Z,7.68
2022-08-26T04:39:16.565Z,7.80
2022-08-26T04:41:46.745Z,7.97
2022-08-26T04:44:14.666Z,7.60
2022-08-26T04:46:43.680Z,7.65
2022-08-26T04:49:12.361Z,8.02
2022-08-26T04:51:41.385Z,7.70
2022-08-26T04:54:11.820Z,7.82
2022-08-26T04:56:41.756Z,7.87
2022-08-26T04:59:18.241Z,7.90
2022-08-26T05:01:47.833Z,7.60
2022-08-26T05:04:18.803Z,8.00
2022-08-26T05:06:48.380Z,7.80
2022-08-26T05:09:18.311Z,7.85
2022-08-26T05:11:48.610Z,8.03
2022-08-26T05:14:20.671Z,7.78
2022-08-26T05:16:49.359Z,7.67
2022-08-26T05:19:19.190Z,8.27
2022-08-26T05:21:49.424Z,8.02
2022-08-26T05:24:18.152Z,7.97
2022-08-26T05:26:47.146Z,7.78
2022-08-26T05:29:15.698Z,7.85
2022-08-26T05:31:44.745Z,7.38
2022-08-26T05:34:13.007Z,7.60
2022-08-26T05:36:41.202Z,7.80
2022-08-26T05:39:10.896Z,7.65
2022-08-26T05:41:41.116Z,7.43
2022-08-26T05:44:12.657Z,7.50
2022-08-26T05:46:44.648Z,7.30
2022-08-26T05:49:13.609Z,7.50
2022-08-26T05:51:41.933Z,7.70
2022-08-26T05:54:11.034Z,6.97
2022-08-26T05:56:39.152Z,7.03
2022-08-26T05:59:14.357Z,7.18
2022-08-26T06:01:43.679Z,7.32
2022-08-26T06:04:13.053Z,7.20
2022-08-26T06:06:42.676Z,6.90
2022-08-26T06:09:12.246Z,6.68
2022-08-26T06:11:40.341Z,6.93
2022-08-26T06:14:09.144Z,6.38
2022-08-26T06:16:40.929Z,6.70
2022-08-26T06:19:11.704Z,6.60
2022-08-26T06:21:41.408Z,6.65
2022-08-26T06:24:28.184Z,6.60
2022-08-26T06:27:01.286Z,6.65
2022-08-26T06:29:31.023Z,6.50
2022-08-26T06:31:59.515Z,6.10
2022-08-26T06:34:29.851Z,6.65
2022-08-26T06:37:01.385Z,6.07
2022-08-26T06:39:30.661Z,6.05
2022-08-26T06:42:00.512Z,6.20
2022-08-26T06:44:28.527Z,5.97
2022-08-26T06:46:56.455Z,5.53
2022-08-26T06:49:27.366Z,5.73
2022-08-26T06:51:58.095Z,5.88
2022-08-26T06:54:26.440Z,6.10
2022-08-26T06:56:55.848Z,5.80
2022-08-26T06:59:25.924Z,5.70
2022-08-26T07:01:54.692Z,5.82
2022-08-26T07:04:24.466Z,6.00
2022-08-26T07:06:53.846Z,5.72
2022-08-26T07:09:22.882Z,5.63
2022-08-26T07:11:51.776Z,5.63
2022-08-26T07:14:21.396Z,5.50
2022-08-26T07:16:51.075Z,5.20
2022-08-26T07:19:31.151Z,5.97
2022-08-26T07:22:00.033Z,5.30
2022-08-26T07:24:28.551Z,5.00
2022-08-26T07:27:00.189Z,5.00
2022-08-26T07:29:28.644Z,5.03
2022-08-26T07:31:59.616Z,5.40
2022-08-26T07:34:27.726Z,4.85
2022-08-26T07:36:56.765Z,4.75
2022-08-26T07:39:25.233Z,5.18
2022-08-26T07:41:53.948Z,5.03
2022-08-26T07:44:21.606Z,5.43
2022-08-26T07:46:53.345Z,4.75
2022-08-26T07:49:23.500Z,5.47
2022-08-26T07:51:51.410Z,4.93
2022-08-26T07:54:19.275Z,4.95
2022-08-26T07:56:48.455Z,5.35
2022-08-26T07:59:16.673Z,5.80
2022-08-26T08:01:45.580Z,5.25
2022-08-26T08:04:14.330Z,5.28
2022-08-26T08:06:44.117Z,5.57
2022-08-26T08:09:13.008Z,5.47
2022-08-26T08:11:41.353Z,5.38
2022-08-26T08:14:11.805Z,5.95
2022-08-26T08:16:45.765Z,5.35
2022-08-26T08:19:14.728Z,5.47
2022-08-26T08:21:43.882Z,5.20
2022-08-26T08:24:12.164Z,5.25
2022-08-26T08:26:40.248Z,5.00
2022-08-26T08:29:09.122Z,5.40
2022-08-26T08:34:24.842Z,5.60
2022-08-26T08:36:55.282Z,5.90
2022-08-26T08:39:23.064Z,5.28
2022-08-26T08:42:07.894Z,5.65
2022-08-26T08:44:41.323Z,5.30
2022-08-26T08:47:43.130Z,5.30
2022-08-26T08:50:22.354Z,5.53
2022-08-26T08:52:56.790Z,5.80
2022-08-26T08:55:32.305Z,5.70
2022-08-26T08:58:06.493Z,5.47
2022-08-26T09:00:47.140Z,5.63
2022-08-26T09:03:26.835Z,5.80
2022-08-26T09:05:55.489Z,5.72
2022-08-26T09:08:29.368Z,5.75
2022-08-26T09:10:59.525Z,5.88
2022-08-26T09:13:28.339Z,6.05
2022-08-26T09:16:06.676Z,6.10
2022-08-26T09:18:50.842Z,6.45
2022-08-26T09:21:20.494Z,5.93
2022-08-26T09:23:55.342Z,6.15
2022-08-26T09:26:29.226Z,6.05
2022-08-26T09:29:01.479Z,5.88
2022-08-26T09:31:31.477Z,5.93
2022-08-26T09:34:12.689Z,6.30
2022-08-26T09:36:48.510Z,5.60
2022-08-26T09:39:34.488Z,6.22
2022-08-26T09:42:09.591Z,5.90
2022-08-26T09:44:54.122Z,5.68
2022-08-26T09:47:26.292Z,7.03
2022-08-26T09:50:09.531Z,7.00
2022-08-26T09:52:38.171Z,6.47
2022-08-26T09:55:14.221Z,5.88
2022-08-26T09:57:48.492Z,5.75
2022-08-26T10:00:30.151Z,5.45
2022-08-26T10:02:58.555Z,6.45
2022-08-26T10:05:40.734Z,5.82
2022-08-26T10:08:23.002Z,6.65
2022-08-26T10:10:53.621Z,6.15
2022-08-26T10:13:29.635Z,6.43
2022-08-26T10:16:05.577Z,6.15
2022-08-26T10:18:36.890Z,6.00
2022-08-26T10:21:10.844Z,5.60
2022-08-26T10:23:43.986Z,5.90
2022-08-26T10:26:19.436Z,6.28
2022-08-26T10:28:52.090Z,6.13
2022-08-26T10:31:27.908Z,6.43
2022-08-26T10:34:00.221Z,6.20
2022-08-26T10:39:46.025Z,6.18
2022-08-26T10:42:23.046Z,5.90
2022-08-26T10:44:58.608Z,5.72
2022-08-26T10:47:32.393Z,6.05
2022-08-26T10:50:02.994Z,5.60
2022-08-26T10:52:41.454Z,5.80
2022-08-26T10:55:17.619Z,5.70
2022-08-26T10:57:56.358Z,5.35
2022-08-26T11:00:48.511Z,5.30
2022-08-26T11:03:31.434Z,5.28
2022-08-26T11:06:22.430Z,5.50
2022-08-26T11:08:51.134Z,5.10
2022-08-26T11:11:46.947Z,5.28
2022-08-26T11:14:53.097Z,5.72
2022-08-26T11:17:55.557Z,5.30
2022-08-26T11:20:36.245Z,5.50
2022-08-26T11:23:38.621Z,5.55
2022-08-26T11:26:35.554Z,6.07
2022-08-26T11:29:03.283Z,5.50
2022-08-26T11:31:59.119Z,5.50
2022-08-26T11:34:56.964Z,5.10
2022-08-26T11:37:33.477Z,4.68
2022-08-26T11:40:02.899Z,4.90
2022-08-26T11:42:38.596Z,4.85
2022-08-26T11:45:19.222Z,4.30
2022-08-26T11:47:49.356Z,4.10
2022-08-26T11:50:21.036Z,3.90
2022-08-26T11:52:59.077Z,4.07
2022-08-26T11:55:26.727Z,3.83
2022-08-26T11:57:56.242Z,4.20
2022-08-26T12:00:27.569Z,4.55
2022-08-26T12:03:07.965Z,4.60
2022-08-26T12:05:39.482Z,5.05
2022-08-26T12:08:10.068Z,4.82
2022-08-26T12:10:40.146Z,4.40
2022-08-26T12:13:09.183Z,4.55
2022-08-26T12:15:36.946Z,4.20
2022-08-26T12:18:29.590Z,3.97
2022-08-26T12:21:01.171Z,4.45
2022-08-26T12:23:41.140Z,3.88
2022-08-26T12:26:14.111Z,3.97
2022-08-26T12:28:46.800Z,3.47
2022-08-26T12:31:24.430Z,3.85
2022-08-26T12:33:54.562Z,4.30
2022-08-26T12:36:27.355Z,4.40
2022-08-26T12:38:58.407Z,4.72
2022-08-26T12:41:41.486Z,4.10
2022-08-26T12:44:09.421Z,4.13
2022-08-26T12:46:37.494Z,4.82
2022-08-26T12:49:06.549Z,4.85
2022-08-26T12:51:35.291Z,4.18
2022-08-26T12:54:06.639Z,5.40
2022-08-26T12:56:39.530Z,4.68
2022-08-26T12:59:12.264Z,5.20
2022-08-26T13:01:44.256Z,5.38
2022-08-26T13:04:37.009Z,5.00
2022-08-26T13:07:22.771Z,5.50
2022-08-26T13:09:51.761Z,5.90
2022-08-26T13:12:28.112Z,5.68
2022-08-26T13:14:55.762Z,5.75
2022-08-26T13:17:23.394Z,5.30
2022-08-26T13:19:52.798Z,5.30
2022-08-26T13:22:24.125Z,5.47
2022-08-26T13:24:54.184Z,5.78
2022-08-26T13:27:23.402Z,5.57
2022-08-26T13:29:51.741Z,5.40
2022-08-26T13:32:20.362Z,5.72
2022-08-26T13:34:51.428Z,5.68
2022-08-26T13:37:22.390Z,5.68
2022-08-26T13:40:01.894Z,5.70
2022-08-26T13:42:29.678Z,5.35
2022-08-26T13:44:58.075Z,5.40
2022-08-26T13:47:27.647Z,5.40
2022-08-26T13:49:56.225Z,5.38
2022-08-26T13:52:29.137Z,5.47
2022-08-26T13:54:58.743Z,4.97
2022-08-26T13:57:27.886Z,5.03
2022-08-26T13:59:56.465Z,5.28
2022-08-26T14:02:24.196Z,4.90
2022-08-26T14:04:53.648Z,5.40
2022-08-26T14:07:21.528Z,5.53
2022-08-26T14:09:50.551Z,5.32
2022-08-26T14:12:18.324Z,5.63
2022-08-26T14:14:45.990Z,5.35
2022-08-26T14:17:18.108Z,5.47
2022-08-26T14:19:48.101Z,5.32
2022-08-26T14:22:17.635Z,5.47
2022-08-26T14:24:45.341Z,5.00
2022-08-26T14:27:14.533Z,5.45
2022-08-26T14:29:42.741Z,5.50
2022-08-26T14:32:16.544Z,5.10
2022-08-26T14:34:46.606Z,5.53
2022-08-26T14:37:15.417Z,5.53
2022-08-26T14:39:43.249Z,5.50
2022-08-26T14:42:11.461Z,5.05
2022-08-26T14:44:44.625Z,6.05
2022-08-26T14:47:12.398Z,5.55
2022-08-26T14:49:40.088Z,5.68
2022-08-26T14:52:07.818Z,6.13
2022-08-26T14:54:34.531Z,6.57
2022-08-26T14:57:04.858Z,6.43
2022-08-26T14:59:35.844Z,6.05
2022-08-26T15:02:05.664Z,6.40
2022-08-26T15:04:33.794Z,7.10
2022-08-26T15:07:03.159Z,12.20
2022-08-26T15:09:34.031Z,12.13
2022-08-26T15:12:02.300Z,8.10
2022-08-26T15:14:32.932Z,8.50
2022-08-26T15:17:01.561Z,8.23
2022-08-26T15:19:30.637Z,7.63
2022-08-26T15:21:58.311Z,7.95
2022-08-26T15:24:28.676Z,7.85
2022-08-26T15:26:56.985Z,7.03
2022-08-26T15:29:24.863Z,8.57
2022-08-26T15:31:52.719Z,8.55
2022-08-26T15:34:25.033Z,9.20
2022-08-26T15:36:54.970Z,8.52
2022-08-26T15:39:22.611Z,10.38
2022-08-26T15:41:50.453Z,10.75
2022-08-26T15:44:19.089Z,11.60
2022-08-26T15:46:48.755Z,11.60
2022-08-26T15:49:17.807Z,10.93
2022-08-26T15:51:49.058Z,10.20
2022-08-26T15:54:21.321Z,10.43
2022-08-26T15:56:52.025Z,11.80
2022-08-26T15:59:20.678Z,11.27
2022-08-26T16:01:48.770Z,12.23
2022-08-26T16:04:17.720Z,12.30
2022-08-26T16:06:49.973Z,13.40
2022-08-26T16:09:19.593Z,13.43
2022-08-26T16:11:47.248Z,13.80
2022-08-26T16:14:14.915Z,14.23
2022-08-26T16:16:42.594Z,14.23
2022-08-26T16:19:11.466Z,13.93
2022-08-26T16:21:40.661Z,13.95
2022-08-26T16:24:09.098Z,14.13
2022-08-26T16:26:39.737Z,13.90
2022-08-26T16:29:09.158Z,14.18
2022-08-26T16:31:37.830Z,14.10
2022-08-26T16:34:06.158Z,14.15
2022-08-26T16:36:34.505Z,13.57
2022-08-26T16:39:02.338Z,13.75
2022-08-26T16:41:32.106Z,13.23
2022-08-26T16:44:01.290Z,12.88
2022-08-26T16:46:29.471Z,12.70
2022-08-26T16:48:58.934Z,13.10
2022-08-26T16:51:28.879Z,13.20
2022-08-26T16:53:58.738Z,12.50
2022-08-26T16:56:34.081Z,12.70
2022-08-26T16:59:04.309Z,13.20
2022-08-26T17:01:32.190Z,12.85
2022-08-26T17:03:59.932Z,13.50
2022-08-26T17:06:27.714Z,13.45
2022-08-26T17:08:55.465Z,13.75
2022-08-26T17:11:23.100Z,13.23
2022-08-26T17:13:50.833Z,13.02
2022-08-26T17:16:23.296Z,13.63
2022-08-26T17:18:54.014Z,14.02
2022-08-26T17:21:21.658Z,13.18
2022-08-26T17:23:49.426Z,13.02
2022-08-26T17:26:17.079Z,13.52
2022-08-26T17:28:44.751Z,13.93
2022-08-26T17:31:14.286Z,13.45
2022-08-26T17:33:45.810Z,14.25
2022-08-26T17:36:15.781Z,15.05
2022-08-26T17:38:43.542Z,15.05
2022-08-26T17:41:14.756Z,15.23
2022-08-26T17:43:42.964Z,14.90
2022-08-26T17:46:12.741Z,16.15
2022-08-26T17:48:41.405Z,15.10
2022-08-26T17:51:12.478Z,14.77
2022-08-26T17:53:41.159Z,15.32
2022-08-26T17:56:10.324Z,14.23
2022-08-26T17:58:38.712Z,15.23
2022-08-26T18:01:07.670Z,14.13
2022-08-26T18:03:36.338Z,14.50
2022-08-26T18:06:08.475Z,14.65
2022-08-26T18:08:37.843Z,14.60
2022-08-26T18:11:09.821Z,14.45
2022-08-26T18:13:37.993Z,13.93
2022-08-26T18:16:14.038Z,13.93
2022-08-26T18:18:42.149Z,14.23
2022-08-26T18:21:13.513Z,15.35
2022-08-26T18:23:42.727Z,17.08
2022-08-26T18:26:11.355Z,15.50
2022-08-26T18:28:40.125Z,15.98
2022-08-26T18:31:08.893Z,15.50
2022-08-26T18:33:36.601Z,15.45
2022-08-26T18:36:04.884Z,14.93
2022-08-26T18:38:32.439Z,14.48
2022-08-26T18:41:05.221Z,13.00
2022-08-26T18:43:32.836Z,13.52
2022-08-26T18:46:05.221Z,13.35
2022-08-26T18:48:32.992Z,12.25
2022-08-26T18:51:01.072Z,12.85
2022-08-26T18:53:29.693Z,12.88
2022-08-26T18:55:58.211Z,12.77
2022-08-26T18:58:27.164Z,13.27
2022-08-26T19:00:54.847Z,11.77
2022-08-26T19:03:22.541Z,13.07
2022-08-26T19:05:50.301Z,13.10
2022-08-26T19:08:17.977Z,13.07
2022-08-26T19:10:45.683Z,12.93
2022-08-26T19:13:13.794Z,12.48
2022-08-26T19:15:46.319Z,13.77
2022-08-26T19:18:38.826Z,13.63
2022-08-26T19:21:06.870Z,13.27
2022-08-26T19:23:34.845Z,14.27
2022-08-26T19:26:05.434Z,14.75
2022-08-26T19:28:33.175Z,14.63
2022-08-26T19:31:02.630Z,14.50
2022-08-26T19:33:30.912Z,15.32
2022-08-26T19:35:58.780Z,13.15
2022-08-26T19:38:27.729Z,14.07
2022-08-26T19:40:55.674Z,13.77
2022-08-26T19:43:23.400Z,14.43
2022-08-26T19:45:51.112Z,14.20
2022-08-26T19:48:20.628Z,13.68
2022-08-26T19:50:48.499Z,14.50
2022-08-26T19:53:16.375Z,13.68
2022-08-26T19:55:43.994Z,13.65
2022-08-26T19:58:12.103Z,13.70
2022-08-26T20:00:42.071Z,13.57
2022-08-26T20:03:13.045Z,14.65
2022-08-26T20:05:44.832Z,13.55
2022-08-26T20:08:16.755Z,13.80
2022-08-26T20:10:50.692Z,13.70
2022-08-26T20:13:18.454Z,17.33
2022-08-26T20:15:46.141Z,18.83
2022-08-26T20:18:27.683Z,17.48
2022-08-26T20:21:13.943Z,17.58
2022-08-26T20:23:41.722Z,17.52
2022-08-26T20:26:09.879Z,18.88
2022-08-26T20:28:37.684Z,19.08
2022-08-26T20:31:05.498Z,18.98
2022-08-26T20:33:46.484Z,19.98
2022-08-26T20:36:16.710Z,21.55
2022-08-26T20:38:45.971Z,21.65
2022-08-26T20:41:13.949Z,20.95
2022-08-26T20:43:42.585Z,23.40
2022-08-26T20:46:18.783Z,24.73
2022-08-26T20:48:48.742Z,23.65
2022-08-26T20:51:18.727Z,23.93
2022-08-26T20:53:46.883Z,23.67
2022-08-26T20:56:16.826Z,25.02
2022-08-26T20:58:44.586Z,25.05
2022-08-26T21:01:18.991Z,24.20
2022-08-26T21:03:46.834Z,25.53
2022-08-26T21:06:15.218Z,25.27
2022-08-26T21:08:44.413Z,25.58
2022-08-26T21:11:13.145Z,26.83
2022-08-26T21:14:01.578Z,26.55
2022-08-26T21:16:28.955Z,26.73
2022-08-26T21:18:56.711Z,26.75
2022-08-26T21:21:28.477Z,27.10
2022-08-26T21:23:57.591Z,26.27
2022-08-26T21:26:25.530Z,26.27
2022-08-26T21:28:53.473Z,25.25
2022-08-26T21:31:26.289Z,25.17
2022-08-26T21:33:54.267Z,24.27
2022-08-26T21:36:22.047Z,24.85
2022-08-26T21:38:49.715Z,25.38
2022-08-26T21:41:21.911Z,24.60
2022-08-26T21:43:50.938Z,25.63
2022-08-26T21:46:22.007Z,26.77
2022-08-26T21:48:51.971Z,27.35
2022-08-26T21:51:22.200Z,25.85
2022-08-26T21:53:50.100Z,25.30
2022-08-26T21:56:20.930Z,26.05
2022-08-26T21:58:48.714Z,26.38
2022-08-26T22:01:22.146Z,27.40
2022-08-26T22:03:50.531Z,27.65
2022-08-26T22:06:20.007Z,27.88
2022-08-26T22:08:47.723Z,29.92
2022-08-26T22:11:15.934Z,28.30
2022-08-26T22:13:46.545Z,29.52
2022-08-26T22:16:14.488Z,30.80
2022-08-26T22:18:43.764Z,28.47
2022-08-26T22:21:15.031Z,28.47
2022-08-26T22:23:43.342Z,29.00
2022-08-26T22:26:14.458Z,28.87
2022-08-26T22:28:42.123Z,29.38
2022-08-26T22:31:12.937Z,29.08
2022-08-26T22:33:41.178Z,29.52
2022-08-26T22:36:15.474Z,28.90
2022-08-26T22:38:43.171Z,28.98
2022-08-26T22:41:11.110Z,27.30
2022-08-26T22:43:39.335Z,27.27
2022-08-26T22:46:09.368Z,27.83
2022-08-26T22:48:39.293Z,27.80
2022-08-26T22:51:07.276Z,27.20
2022-08-26T22:53:35.265Z,28.02
2022-08-26T22:56:06.715Z,27.33
2022-08-26T22:58:34.401Z,25.88
2022-08-26T23:01:03.344Z,26.50
2022-08-26T23:03:31.899Z,25.87
2022-08-26T23:06:02.739Z,26.20
2022-08-26T23:08:30.490Z,25.30
2022-08-26T23:10:58.109Z,26.00
2022-08-26T23:13:25.727Z,26.27
2022-08-26T23:16:01.246Z,25.17
2022-08-26T23:18:29.074Z,25.92
2022-08-26T23:20:57.108Z,25.73
2022-08-26T23:23:27.509Z,24.65
2022-08-26T23:25:55.694Z,24.83
2022-08-26T23:28:23.834Z,25.08
2022-08-26T23:30:51.503Z,24.85
2022-08-26T23:33:19.330Z,25.52
2022-08-26T23:35:46.124Z,24.77
2022-08-26T23:38:14.526Z,24.95
2022-08-26T23:40:43.535Z,25.52
2022-08-26T23:43:12.341Z,24.23
2022-08-26T23:45:40.071Z,24.65
2022-08-26T23:48:08.818Z,24.30
2022-08-26T23:50:53.941Z,23.20
2022-08-26T23:53:23.326Z,23.13
2022-08-26T23:55:54.066Z,23.03
2022-08-26T23:58:23.273Z,23.52
